Time;durP1;ratioP1;P1;durP2;ratioP2;P2;SDS_P1;SDS_P2;PMS_P1;PMS_P2;Temp;Humidity;BMP_temperature;BMP_pressure;BME280_temperature;BME280_humidity;BME280_pressure;Samples;Min_cycle;Max_cycle;Signal;HPM_P1;HPM_P2
2021/04/27 00:01:16;;;;;;;2.33;1.70;;;13.10;45.00;;;;;;4971651;28;20023;-86
2021/04/27 00:03:42;;;;;;;2.17;1.30;;;13.10;45.00;;;;;;4938556;28;20513;-86
2021/04/27 00:06:08;;;;;;;1.63;1.40;;;13.10;45.00;;;;;;4909358;28;20039;-87
2021/04/27 00:08:34;;;;;;;2.08;1.48;;;13.10;45.10;;;;;;4967711;28;20491;-86
2021/04/27 00:11:00;;;;;;;1.77;1.50;;;13.00;45.10;;;;;;4923531;29;20365;-87
2021/04/27 00:13:27;;;;;;;1.27;1.17;;;12.90;45.10;;;;;;4923953;29;20078;-87
2021/04/27 00:15:53;;;;;;;1.88;1.35;;;12.90;45.20;;;;;;4923411;29;20043;-87
2021/04/27 00:18:19;;;;;;;1.98;1.50;;;12.90;45.30;;;;;;4941111;29;20027;-88
2021/04/27 00:20:45;;;;;;;1.30;1.10;;;12.90;45.30;;;;;;4935061;29;20042;-86
2021/04/27 00:23:10;;;;;;;2.22;1.42;;;12.80;45.40;;;;;;4926245;29;20031;-87
2021/04/27 00:25:36;;;;;;;2.80;1.40;;;12.80;45.40;;;;;;4910586;29;20031;-87
2021/04/27 00:28:02;;;;;;;2.20;1.40;;;12.70;45.40;;;;;;4931672;28;20104;-88
2021/04/27 00:30:29;;;;;;;1.48;1.30;;;12.70;45.40;;;;;;4926974;29;20027;-88
2021/04/27 00:32:56;;;;;;;1.50;1.40;;;12.70;45.50;;;;;;4952471;28;20051;-89
2021/04/27 00:35:22;;;;;;;2.70;1.42;;;12.60;45.50;;;;;;4940556;28;20023;-86
2021/04/27 00:37:48;;;;;;;1.30;1.20;;;12.60;45.50;;;;;;4931194;29;20042;-89
2021/04/27 00:40:16;;;;;;;1.20;1.10;;;12.60;45.60;;;;;;4929460;29;20035;-88
2021/04/27 00:42:46;;;;;;;1.40;1.30;;;12.50;45.60;;;;;;4950627;28;20098;-89
2021/04/27 00:45:17;;;;;;;1.38;1.20;;;12.50;45.60;;;;;;4923025;29;20027;-88
2021/04/27 00:47:43;;;;;;;1.60;1.30;;;12.40;45.60;;;;;;4940105;29;20058;-89
2021/04/27 00:50:13;;;;;;;1.98;1.55;;;12.40;45.70;;;;;;4940667;28;20130;-89
2021/04/27 00:52:39;;;;;;;1.52;1.38;;;12.40;45.80;;;;;;4957783;28;20027;-88
2021/04/27 00:55:06;;;;;;;2.40;1.60;;;12.30;46.40;;;;;;4974352;28;20078;-89
2021/04/27 00:57:33;;;;;;;2.40;1.50;;;12.30;45.80;;;;;;4923330;28;20039;-88
2021/04/27 00:59:59;;;;;;;1.40;1.30;;;12.30;45.90;;;;;;4927029;28;20031;-87
2021/04/27 01:02:26;;;;;;;1.85;1.33;;;12.30;45.90;;;;;;4956295;28;20038;-89
2021/04/27 01:04:52;;;;;;;1.55;1.40;;;12.20;45.90;;;;;;4914774;28;20476;-88
2021/04/27 01:07:21;;;;;;;1.85;1.45;;;12.20;45.90;;;;;;4952939;29;20032;-89
2021/04/27 01:10:00;;;;;;;2.28;1.38;;;12.20;46.00;;;;;;4928544;29;20024;-86
2021/04/27 01:12:31;;;;;;;1.75;1.30;;;12.10;46.00;;;;;;4953039;28;20037;-87
2021/04/27 01:15:30;;;;;;;1.40;1.30;;;12.10;46.00;;;;;;4919592;28;20023;-87
2021/04/27 01:17:58;;;;;;;1.48;1.38;;;12.10;46.20;;;;;;4890500;28;20510;-87
2021/04/27 01:20:37;;;;;;;1.65;1.35;;;12.00;46.00;;;;;;4941032;28;20041;-86
2021/04/27 01:23:22;;;;;;;1.58;1.33;;;12.00;46.20;;;;;;4931324;29;20349;-87
2021/04/27 01:26:06;;;;;;;1.85;1.50;;;11.90;46.20;;;;;;4939159;29;20035;-87
2021/04/27 01:28:40;;;;;;;2.20;1.50;;;11.90;46.20;;;;;;4943505;28;20027;-87
2021/04/27 01:31:07;;;;;;;4.90;1.63;;;11.80;46.20;;;;;;4918478;29;20028;-87
2021/04/27 01:33:33;;;;;;;2.03;1.52;;;11.80;46.30;;;;;;4914864;29;20056;-87
2021/04/27 01:36:02;;;;;;;1.90;1.70;;;11.80;46.30;;;;;;4912813;29;20035;-87
2021/04/27 01:38:32;;;;;;;2.17;1.60;;;11.80;46.40;;;;;;4935747;29;20454;-87
2021/04/27 01:40:59;;;;;;;1.95;1.70;;;11.70;46.40;;;;;;4921600;29;20476;-88
2021/04/27 01:43:25;;;;;;;2.83;1.50;;;11.70;46.50;;;;;;4906102;29;20148;-87
2021/04/27 01:45:57;;;;;;;2.83;1.77;;;11.70;46.50;;;;;;4907593;29;20051;-88
2021/04/27 01:48:24;;;;;;;2.15;1.60;;;11.60;46.40;;;;;;4919235;29;20405;-87
2021/04/27 01:50:51;;;;;;;2.40;1.50;;;11.60;46.50;;;;;;4898137;29;20458;-87
2021/04/27 01:53:38;;;;;;;2.45;1.65;;;11.60;46.50;;;;;;4922173;29;20047;-86
2021/04/27 01:56:05;;;;;;;1.63;1.50;;;11.50;46.50;;;;;;4931608;29;20040;-86
2021/04/27 01:58:32;;;;;;;2.17;1.60;;;11.50;46.60;;;;;;4915201;29;20071;-86
2021/04/27 02:00:59;;;;;;;2.60;1.80;;;11.50;46.60;;;;;;4953982;28;20032;-86
2021/04/27 02:03:26;;;;;;;2.22;1.70;;;11.50;46.70;;;;;;4909411;29;20534;-87
2021/04/27 02:06:25;;;;;;;2.10;1.60;;;11.40;46.70;;;;;;4899897;29;20079;-87
2021/04/27 02:09:11;;;;;;;1.85;1.60;;;11.40;46.70;;;;;;4892223;29;20063;-88
2021/04/27 02:11:38;;;;;;;;;;;11.40;46.80;;;;;;4922378;29;20020;-85
2021/04/27 02:14:06;;;;;;;2.08;1.50;;;11.30;46.80;;;;;;4898919;29;19958;-86
2021/04/27 02:16:50;;;;;;;2.20;1.45;;;11.30;46.70;;;;;;4920866;29;20042;-85
2021/04/27 02:19:19;;;;;;;2.38;1.85;;;11.20;46.80;;;;;;4900796;29;20052;-86
2021/04/27 02:22:02;;;;;;;1.92;1.73;;;11.20;46.90;;;;;;4901369;29;20066;-85
2021/04/27 02:24:35;;;;;;;1.88;1.70;;;11.20;47.00;;;;;;4903213;29;20085;-86
2021/04/27 02:27:03;;;;;;;1.90;1.58;;;11.10;46.90;;;;;;4915608;29;20071;-86
2021/04/27 02:29:35;;;;;;;2.20;1.80;;;11.10;47.00;;;;;;4918169;29;20028;-86
2021/04/27 02:32:01;;;;;;;2.58;1.80;;;11.10;47.00;;;;;;4948923;28;20093;-86
2021/04/27 02:34:29;;;;;;;2.72;1.70;;;11.00;47.00;;;;;;4927916;29;20050;-87
2021/04/27 02:36:56;;;;;;;2.92;1.75;;;11.00;47.00;;;;;;4948896;29;20035;-87
2021/04/27 02:39:33;;;;;;;2.22;1.67;;;11.00;47.10;;;;;;4942255;29;20034;-85
2021/04/27 02:41:59;;;;;;;2.90;1.80;;;11.00;47.10;;;;;;4944094;29;20031;-87
2021/04/27 02:44:43;;;;;;;1.83;1.60;;;10.90;47.10;;;;;;4942219;29;20155;-86
2021/04/27 02:47:13;;;;;;;2.35;1.52;;;10.90;47.10;;;;;;4928541;29;20310;-86
2021/04/27 02:49:40;;;;;;;2.15;1.75;;;10.90;47.20;;;;;;4927536;29;20056;-86
2021/04/27 02:52:13;;;;;;;2.13;1.88;;;10.90;47.20;;;;;;4927398;29;20476;-86
2021/04/27 02:54:49;;;;;;;2.65;1.70;;;10.80;47.20;;;;;;4927645;29;20044;-85
2021/04/27 02:57:16;;;;;;;1.92;1.60;;;10.80;47.20;;;;;;4958698;28;20399;-86
2021/04/27 02:59:42;;;;;;;1.88;1.60;;;10.80;47.30;;;;;;4954931;29;20071;-85
2021/04/27 03:02:08;;;;;;;2.72;1.90;;;10.80;47.40;;;;;;4910530;29;20036;-86
2021/04/27 03:04:35;;;;;;;2.85;1.90;;;10.70;47.40;;;;;;4907178;29;20027;-86
2021/04/27 03:07:09;;;;;;;2.60;1.80;;;10.70;47.40;;;;;;4955461;28;20039;-85
2021/04/27 03:09:42;;;;;;;2.08;1.80;;;10.70;47.40;;;;;;4960348;28;20036;-86
2021/04/27 03:12:08;;;;;;;3.13;1.80;;;10.60;47.40;;;;;;4913373;29;20039;-88
2021/04/27 03:14:37;;;;;;;2.67;1.90;;;10.60;47.40;;;;;;4951679;28;20024;-88
2021/04/27 03:17:04;;;;;;;2.10;1.85;;;10.60;47.50;;;;;;4929827;28;20069;-88
2021/04/27 03:19:30;;;;;;;2.45;1.75;;;10.60;47.50;;;;;;4927848;29;20063;-87
2021/04/27 03:22:18;;;;;;;1.75;1.65;;;10.50;47.50;;;;;;4959930;28;20035;-86
2021/04/27 03:24:45;;;;;;;2.10;1.60;;;10.50;47.50;;;;;;4948036;28;20113;-85
2021/04/27 03:27:11;;;;;;;2.17;1.80;;;10.50;47.50;;;;;;4935973;28;20116;-86
2021/04/27 03:29:55;;;;;;;2.65;1.70;;;10.50;47.60;;;;;;4909960;28;20042;-87
2021/04/27 03:32:22;;;;;;;2.15;1.65;;;10.50;47.60;;;;;;4948383;28;20056;-85
2021/04/27 03:34:48;;;;;;;1.88;1.67;;;10.40;47.60;;;;;;4950547;28;20056;-86
2021/04/27 03:37:16;;;;;;;2.05;1.80;;;10.40;47.70;;;;;;4925892;29;20098;-88
2021/04/27 03:39:43;;;;;;;1.90;1.70;;;10.30;47.60;;;;;;4930541;29;20063;-89
2021/04/27 03:42:09;;;;;;;3.10;1.73;;;10.30;47.70;;;;;;4949644;28;20019;-89
2021/04/27 03:44:35;;;;;;;2.35;1.73;;;10.30;47.80;;;;;;4909151;29;20086;-87
2021/04/27 03:47:03;;;;;;;2.05;1.70;;;10.30;47.70;;;;;;4922172;28;20372;-87
2021/04/27 03:49:29;;;;;;;2.78;1.95;;;10.30;47.80;;;;;;4911056;28;20034;-87
2021/04/27 03:51:55;;;;;;;3.10;1.75;;;10.20;47.80;;;;;;4924532;29;20051;-87
2021/04/27 03:54:21;;;;;;;2.75;1.90;;;10.20;47.80;;;;;;4939579;29;20059;-86
2021/04/27 03:56:47;;;;;;;2.40;1.90;;;10.20;47.80;;;;;;4932808;28;20538;-87
2021/04/27 03:59:14;;;;;;;2.60;1.92;;;10.20;47.90;;;;;;4948220;28;20031;-87
2021/04/27 04:01:41;;;;;;;2.40;1.83;;;10.10;47.90;;;;;;4896956;29;20031;-87
2021/04/27 04:04:07;;;;;;;2.35;2.00;;;10.10;47.90;;;;;;4939603;29;20480;-87
2021/04/27 04:06:34;;;;;;;3.22;1.83;;;10.10;47.90;;;;;;4953350;28;20050;-87
2021/04/27 04:09:04;;;;;;;2.05;1.75;;;10.10;47.90;;;;;;4970967;28;20023;-87
2021/04/27 04:11:37;;;;;;;2.80;1.67;;;10.00;48.50;;;;;;4947507;28;20110;-86
2021/04/27 04:14:06;;;;;;;2.33;1.80;;;10.00;48.00;;;;;;4924492;29;20480;-86
2021/04/27 04:16:52;;;;;;;2.63;1.83;;;10.00;48.00;;;;;;4932970;28;20050;-86
2021/04/27 04:19:18;;;;;;;2.75;1.80;;;9.90;48.00;;;;;;4920064;29;20111;-85
2021/04/27 04:21:53;;;;;;;3.72;2.13;;;9.90;48.00;;;;;;4936846;28;20042;-86
2021/04/27 04:24:19;;;;;;;1.98;1.67;;;9.90;48.00;;;;;;4925694;28;20132;-87
2021/04/27 04:26:45;;;;;;;2.00;1.80;;;9.90;48.10;;;;;;4949518;28;20125;-87
2021/04/27 04:29:37;;;;;;;2.97;2.13;;;9.80;48.10;;;;;;4911774;28;20077;-87
2021/04/27 04:32:21;;;;;;;1.90;1.70;;;9.80;48.10;;;;;;4957418;28;20086;-87
2021/04/27 04:35:09;;;;;;;2.47;1.83;;;9.80;48.10;;;;;;4931840;28;20395;-87
2021/04/27 04:37:54;;;;;;;2.55;1.80;;;9.70;48.10;;;;;;4965383;28;20122;-87
2021/04/27 04:40:39;;;;;;;2.35;1.88;;;9.70;48.10;;;;;;4940828;29;20098;-89
2021/04/27 04:43:28;;;;;;;2.83;1.90;;;9.70;48.20;;;;;;4924815;29;20102;-87
2021/04/27 04:46:12;;;;;;;2.92;1.88;;;9.70;48.20;;;;;;4931396;28;20049;-86
2021/04/27 04:48:57;;;;;;;2.07;1.67;;;9.70;48.30;;;;;;4935407;29;20094;-86
2021/04/27 04:51:42;;;;;;;2.55;1.90;;;9.60;48.20;;;;;;4968857;28;20037;-86
2021/04/27 04:54:14;;;;;;;2.42;2.10;;;9.60;48.20;;;;;;4960901;28;20090;-87
2021/04/27 04:56:40;;;;;;;2.08;1.77;;;9.60;48.30;;;;;;4923397;28;20077;-86
2021/04/27 04:59:06;;;;;;;2.70;2.00;;;9.50;48.30;;;;;;4905452;29;20028;-87
2021/04/27 05:01:32;;;;;;;4.25;2.40;;;9.50;48.30;;;;;;4936757;28;20062;-87
2021/04/27 05:04:17;;;;;;;2.08;1.80;;;9.50;48.40;;;;;;4940630;28;20046;-87
2021/04/27 05:07:07;;;;;;;2.45;1.90;;;9.50;48.40;;;;;;4945138;28;20049;-86
2021/04/27 05:09:51;;;;;;;3.42;2.10;;;9.50;48.40;;;;;;4943632;28;20033;-87
2021/04/27 05:12:33;;;;;;;3.53;2.15;;;9.50;48.50;;;;;;4947708;28;20122;-85
2021/04/27 05:15:10;;;;;;;2.38;2.05;;;9.40;48.40;;;;;;4936693;29;20035;-89
2021/04/27 05:17:36;;;;;;;2.60;1.95;;;9.40;48.50;;;;;;4972134;28;20399;-88
2021/04/27 05:20:04;;;;;;;2.67;2.08;;;9.40;48.50;;;;;;4912134;29;20024;-88
2021/04/27 05:22:35;;;;;;;2.10;1.90;;;9.40;48.60;;;;;;4949528;28;20114;-86
2021/04/27 05:25:02;;;;;;;2.85;2.22;;;9.40;48.60;;;;;;4930700;28;20035;-87
2021/04/27 05:27:28;;;;;;;2.50;2.10;;;9.40;48.60;;;;;;4956393;28;20070;-87
2021/04/27 05:29:54;;;;;;;2.95;2.20;;;9.40;48.70;;;;;;4932312;29;20052;-87
2021/04/27 05:32:20;;;;;;;3.58;2.50;;;9.30;48.60;;;;;;4915202;28;20055;-86
2021/04/27 05:34:46;;;;;;;2.47;2.13;;;9.40;48.70;;;;;;4946826;29;20059;-87
2021/04/27 05:37:12;;;;;;;3.30;2.30;;;9.30;48.70;;;;;;4950731;28;20035;-87
2021/04/27 05:39:37;;;;;;;2.85;2.00;;;9.30;48.70;;;;;;4921862;29;20043;-87
2021/04/27 05:42:04;;;;;;;2.90;2.10;;;9.30;48.70;;;;;;4927008;29;20032;-88
2021/04/27 05:44:30;;;;;;;3.88;2.33;;;9.30;48.70;;;;;;4920724;29;20465;-87
2021/04/27 05:46:56;;;;;;;2.42;2.03;;;9.30;48.70;;;;;;4940471;28;20039;-87
2021/04/27 05:49:22;;;;;;;2.78;2.22;;;9.30;48.80;;;;;;4945755;28;20122;-87
2021/04/27 05:51:48;;;;;;;2.65;2.13;;;9.30;48.80;;;;;;4931074;29;20050;-87
2021/04/27 05:54:14;;;;;;;2.65;2.10;;;9.30;48.80;;;;;;4903780;29;20035;-87
2021/04/27 05:56:40;;;;;;;3.97;2.40;;;9.30;48.80;;;;;;4925720;28;20024;-87
2021/04/27 05:59:06;;;;;;;3.25;2.30;;;9.30;48.80;;;;;;4928213;29;20031;-88
2021/04/27 06:01:32;;;;;;;2.97;2.30;;;9.30;48.90;;;;;;4942065;28;20107;-88
2021/04/27 06:03:59;;;;;;;3.15;2.33;;;9.30;48.90;;;;;;4928101;28;20074;-88
2021/04/27 06:06:25;;;;;;;3.92;2.33;;;9.30;48.90;;;;;;4926067;28;20106;-85
2021/04/27 06:08:51;;;;;;;2.15;1.77;;;9.30;48.90;;;;;;4944962;29;20035;-86
2021/04/27 06:11:17;;;;;;;2.88;2.10;;;9.20;48.90;;;;;;4952257;28;20095;-88
2021/04/27 06:13:43;;;;;;;2.95;2.40;;;9.20;48.90;;;;;;4911190;29;20039;-87
2021/04/27 06:16:09;;;;;;;3.22;2.38;;;9.20;48.90;;;;;;4920729;29;20043;-87
2021/04/27 06:18:35;;;;;;;3.10;2.15;;;9.20;48.90;;;;;;4935491;29;20110;-86
2021/04/27 06:21:01;;;;;;;3.40;2.20;;;9.20;49.00;;;;;;4955696;28;20087;-88
2021/04/27 06:23:27;;;;;;;3.88;2.38;;;9.20;49.00;;;;;;4953700;28;20031;-86
2021/04/27 06:25:53;;;;;;;3.55;2.40;;;9.20;49.10;;;;;;4908008;29;20369;-88
2021/04/27 06:28:20;;;;;;;3.15;2.17;;;9.20;49.00;;;;;;4924588;29;20388;-87
2021/04/27 06:30:46;;;;;;;3.30;2.50;;;9.20;49.00;;;;;;4944678;28;20136;-88
2021/04/27 06:33:12;;;;;;;2.53;2.00;;;9.20;49.10;;;;;;4919716;28;20070;-87
2021/04/27 06:35:39;;;;;;;2.97;2.05;;;9.20;49.00;;;;;;4943984;28;20032;-87
2021/04/27 06:38:05;;;;;;;3.60;2.38;;;9.20;49.10;;;;;;4954207;29;20118;-87
2021/04/27 06:40:31;;;;;;;2.90;2.20;;;9.20;49.00;;;;;;4933387;28;20031;-88
2021/04/27 06:42:57;;;;;;;2.97;2.15;;;9.20;49.10;;;;;;4950055;28;20054;-88
2021/04/27 06:45:24;;;;;;;3.67;2.50;;;9.20;49.00;;;;;;4962860;28;20031;-88
2021/04/27 06:47:50;;;;;;;2.70;2.20;;;9.20;49.00;;;;;;4935184;28;20046;-88
2021/04/27 06:50:17;;;;;;;2.67;2.00;;;9.30;49.10;;;;;;4920501;29;20051;-89
2021/04/27 06:52:44;;;;;;;2.53;1.92;;;9.20;49.10;;;;;;4926874;28;20043;-89
2021/04/27 06:55:10;;;;;;;2.25;1.98;;;9.20;49.10;;;;;;4920420;29;20020;-87
2021/04/27 06:57:36;;;;;;;3.05;2.20;;;9.30;49.10;;;;;;4937737;29;20066;-88
2021/04/27 07:00:04;;;;;;;2.70;2.03;;;9.30;49.10;;;;;;4937272;28;20028;-88
2021/04/27 07:02:30;;;;;;;2.58;2.08;;;9.20;49.10;;;;;;4959923;28;20113;-88
2021/04/27 07:04:56;;;;;;;3.03;2.20;;;9.30;49.10;;;;;;4927085;29;20088;-83
2021/04/27 07:07:22;;;;;;;2.95;2.10;;;9.30;49.10;;;;;;4938306;28;20039;-84
2021/04/27 07:09:47;;;;;;;2.15;1.80;;;9.30;49.10;;;;;;4908359;28;20035;-85
2021/04/27 07:12:13;;;;;;;3.08;2.20;;;9.30;49.10;;;;;;4916473;29;20024;-84
2021/04/27 07:14:39;;;;;;;2.95;2.08;;;9.30;49.20;;;;;;4924313;28;20070;-84
2021/04/27 07:17:05;;;;;;;2.22;2.03;;;9.30;49.20;;;;;;4955003;28;20063;-84
2021/04/27 07:19:30;;;;;;;2.75;2.13;;;9.30;49.20;;;;;;4929830;29;20035;-84
2021/04/27 07:21:56;;;;;;;2.65;2.20;;;9.30;49.20;;;;;;4926626;29;20046;-84
2021/04/27 07:24:24;;;;;;;3.60;2.45;;;9.40;49.20;;;;;;4924829;29;20055;-84
2021/04/27 07:26:50;;;;;;;3.60;2.20;;;9.30;49.20;;;;;;4940642;29;20045;-83
2021/04/27 07:29:16;;;;;;;2.30;1.90;;;9.40;49.30;;;;;;4954299;29;20118;-84
2021/04/27 07:31:43;;;;;;;2.72;2.22;;;9.40;49.30;;;;;;4939865;29;20043;-84
2021/04/27 07:34:09;;;;;;;3.08;2.20;;;9.40;49.20;;;;;;4979377;28;20023;-85
2021/04/27 07:36:36;;;;;;;2.53;2.08;;;9.40;49.20;;;;;;4924586;29;20126;-83
2021/04/27 07:39:04;;;;;;;2.90;1.83;;;9.40;49.30;;;;;;4942220;28;20029;-84
2021/04/27 07:41:30;;;;;;;2.63;2.13;;;9.40;49.30;;;;;;4950747;29;20032;-85
2021/04/27 07:43:56;;;;;;;2.65;2.00;;;9.40;49.30;;;;;;4929520;29;20376;-84
2021/04/27 07:46:22;;;;;;;2.58;2.00;;;9.50;49.30;;;;;;4961687;28;20042;-86
2021/04/27 07:48:48;;;;;;;2.97;2.35;;;9.50;49.40;;;;;;4954013;29;20042;-83
2021/04/27 07:51:14;;;;;;;2.75;1.98;;;9.50;49.40;;;;;;4924248;28;20032;-85
2021/04/27 07:53:40;;;;;;;3.40;2.30;;;9.50;49.40;;;;;;4927471;28;20054;-84
2021/04/27 07:56:06;;;;;;;3.05;2.08;;;9.60;49.40;;;;;;4923628;28;20359;-84
2021/04/27 07:58:32;;;;;;;2.63;2.10;;;9.60;49.40;;;;;;4958028;28;20027;-84
2021/04/27 08:00:58;;;;;;;2.85;2.15;;;9.70;49.40;;;;;;4929952;28;20174;-85
2021/04/27 08:03:24;;;;;;;2.38;2.00;;;9.60;49.30;;;;;;4925622;29;20035;-86
2021/04/27 08:05:50;;;;;;;3.45;2.10;;;9.70;49.40;;;;;;4940279;28;20038;-85
2021/04/27 08:08:15;;;;;;;3.17;2.20;;;9.70;49.30;;;;;;4914357;28;20476;-89
2021/04/27 08:10:41;;;;;;;2.85;2.17;;;9.80;49.30;;;;;;4941538;28;20090;-89
2021/04/27 08:13:08;;;;;;;3.17;2.30;;;9.80;49.30;;;;;;4939364;28;20074;-86
2021/04/27 08:15:34;;;;;;;2.38;1.90;;;9.90;49.30;;;;;;4927514;28;20023;-88
2021/04/27 08:18:01;;;;;;;2.10;1.90;;;9.90;49.30;;;;;;4929662;29;20417;-84
2021/04/27 08:20:29;;;;;;;2.03;1.80;;;9.90;49.30;;;;;;4941850;28;20035;-86
2021/04/27 08:22:55;;;;;;;2.50;1.80;;;10.00;49.30;;;;;;4979773;28;20035;-85
2021/04/27 08:25:22;;;;;;;2.80;2.13;;;10.00;49.20;;;;;;4905639;28;20028;-86
2021/04/27 08:27:49;;;;;;;3.03;1.85;;;10.10;49.20;;;;;;4927986;29;20035;-86
2021/04/27 08:30:19;;;;;;;2.30;2.00;;;10.20;49.20;;;;;;4965888;28;20028;-87
2021/04/27 08:32:46;;;;;;;2.15;1.88;;;10.30;49.20;;;;;;4930411;29;20056;-87
2021/04/27 08:35:12;;;;;;;2.13;1.88;;;10.30;49.10;;;;;;4907111;29;20051;-86
2021/04/27 08:37:38;;;;;;;2.35;2.00;;;10.40;49.10;;;;;;4903618;29;20485;-86
2021/04/27 08:40:06;;;;;;;2.17;1.85;;;10.40;49.00;;;;;;4926311;29;20087;-87
2021/04/27 08:42:34;;;;;;;3.85;2.22;;;10.50;48.90;;;;;;4918082;29;20035;-89
2021/04/27 08:45:04;;;;;;;2.50;2.00;;;10.60;48.90;;;;;;4901502;29;20036;-86
2021/04/27 08:47:30;;;;;;;2.15;1.73;;;10.70;48.90;;;;;;4917121;29;20136;-83
2021/04/27 08:49:56;;;;;;;1.73;1.60;;;10.70;48.80;;;;;;4916792;29;20055;-89
2021/04/27 08:52:22;;;;;;;2.05;1.80;;;10.80;48.80;;;;;;4904253;29;20036;-84
2021/04/27 08:54:48;;;;;;;2.75;2.00;;;10.90;48.80;;;;;;4899268;29;20040;-87
2021/04/27 08:57:14;;;;;;;3.35;2.10;;;11.00;48.80;;;;;;4918119;29;20373;-84
2021/04/27 08:59:40;;;;;;;3.00;2.08;;;11.10;48.80;;;;;;4916933;28;20036;-89
2021/04/27 09:02:08;;;;;;;2.25;1.63;;;11.20;48.80;;;;;;4915814;29;20040;-84
2021/04/27 09:04:45;;;;;;;3.13;1.88;;;11.20;48.70;;;;;;4909342;29;20062;-85
2021/04/27 09:07:14;;;;;;;2.05;1.83;;;11.30;48.80;;;;;;4924245;29;20047;-84
2021/04/27 09:09:46;;;;;;;2.40;1.90;;;11.40;48.70;;;;;;4916390;29;20046;-84
2021/04/27 09:12:13;;;;;;;1.98;1.77;;;11.50;48.80;;;;;;4943887;29;20107;-84
2021/04/27 09:14:41;;;;;;;2.53;2.05;;;11.60;48.80;;;;;;4926456;29;20040;-85
2021/04/27 09:17:10;;;;;;;2.45;2.00;;;11.70;48.80;;;;;;4901136;29;20033;-86
2021/04/27 09:19:42;;;;;;;3.17;1.73;;;11.80;48.90;;;;;;4909470;29;20051;-86
2021/04/27 09:22:16;;;;;;;2.17;1.65;;;11.90;48.80;;;;;;4946899;29;20032;-91
2021/04/27 09:25:06;;;;;;;2.58;2.00;;;12.00;48.90;;;;;;4906905;29;20039;-85
2021/04/27 09:27:40;;;;;;;2.42;1.92;;;12.10;48.90;;;;;;4917784;29;20040;-86
2021/04/27 09:30:20;;;;;;;2.23;1.80;;;12.20;48.90;;;;;;4913376;29;20080;-89
2021/04/27 09:32:54;;;;;;;2.42;1.98;;;12.30;48.90;;;;;;4920044;28;20283;-90
2021/04/27 09:35:41;;;;;;;2.47;1.60;;;12.40;48.90;;;;;;4954386;28;20063;-92
2021/04/27 09:38:22;;;;;;;2.08;1.73;;;12.50;48.90;;;;;;4937019;28;20026;-92
2021/04/27 09:41:03;;;;;;;1.90;1.70;;;12.70;48.90;;;;;;4944069;28;20066;-87
2021/04/27 09:43:37;;;;;;;2.47;1.85;;;12.70;48.90;;;;;;4927594;28;20074;-89
2021/04/27 09:46:06;;;;;;;2.30;1.90;;;12.80;48.80;;;;;;4936576;28;20039;-87
2021/04/27 09:48:33;;;;;;;2.53;1.70;;;12.90;48.80;;;;;;4930448;28;20028;-90
2021/04/27 09:51:16;;;;;;;1.52;1.40;;;13.10;48.90;;;;;;4936876;28;20078;-92
2021/04/27 09:54:04;;;;;;;2.25;1.60;;;13.20;49.00;;;;;;4943829;28;20033;-90
2021/04/27 09:56:43;;;;;;;3.45;1.90;;;13.30;48.90;;;;;;4957849;28;20041;-94
2021/04/27 09:59:13;;;;;;;2.13;1.60;;;13.40;48.80;;;;;;4951495;28;20114;-92
2021/04/27 10:01:40;;;;;;;1.67;1.40;;;13.50;48.70;;;;;;4938561;29;20092;-90
2021/04/27 10:04:07;;;;;;;1.83;1.55;;;13.60;48.70;;;;;;4922450;29;20079;-89
2021/04/27 10:06:35;;;;;;;1.95;1.60;;;13.70;48.80;;;;;;4958215;28;20579;-89
2021/04/27 10:09:01;;;;;;;1.88;1.55;;;13.80;48.90;;;;;;4908916;28;20030;-88
2021/04/27 10:11:27;;;;;;;2.95;1.85;;;14.00;48.80;;;;;;4961220;28;20106;-87
2021/04/27 10:13:55;;;;;;;2.35;1.80;;;14.00;48.70;;;;;;4924070;28;20024;-89
2021/04/27 10:16:22;;;;;;;1.67;1.58;;;14.20;48.80;;;;;;4934686;28;20043;-87
2021/04/27 10:18:49;;;;;;;2.25;1.70;;;14.30;48.70;;;;;;4943367;28;20066;-86
2021/04/27 10:21:15;;;;;;;1.55;1.35;;;14.40;48.50;;;;;;4977125;28;20034;-86
2021/04/27 10:23:46;;;;;;;1.42;1.33;;;14.50;48.40;;;;;;4934580;29;20050;-85
2021/04/27 10:26:12;;;;;;;2.15;1.52;;;14.60;48.40;;;;;;4894111;28;20140;-87
2021/04/27 10:29:06;;;;;;;2.03;1.55;;;14.70;48.20;;;;;;4921912;29;20070;-84
2021/04/27 10:31:35;;;;;;;2.17;1.65;;;14.80;48.20;;;;;;4970667;28;20122;-89
2021/04/27 10:34:15;;;;;;;2.70;1.55;;;14.90;48.00;;;;;;4971426;28;20050;-86
2021/04/27 10:36:50;;;;;;;1.63;1.50;;;15.00;48.00;;;;;;4944807;28;20122;-92
2021/04/27 10:39:34;;;;;;;1.77;1.42;;;15.10;48.00;;;;;;4954750;28;20035;-89
2021/04/27 10:42:18;;;;;;;1.98;1.38;;;15.20;48.00;;;;;;4974601;28;20038;-91
2021/04/27 10:44:59;;;;;;;1.95;1.50;;;15.40;47.90;;;;;;4944333;29;20528;-85
2021/04/27 10:47:25;;;;;;;1.30;1.20;;;15.50;47.80;;;;;;4947976;28;20054;-86
2021/04/27 10:49:57;;;;;;;1.55;1.42;;;15.50;47.60;;;;;;4946338;28;20106;-85
2021/04/27 10:52:28;;;;;;;1.63;1.42;;;15.60;47.70;;;;;;4967955;28;20085;-88
2021/04/27 10:55:25;;;;;;;1.65;1.48;;;15.80;47.70;;;;;;4976744;28;20122;-90
2021/04/27 10:58:10;;;;;;;2.42;1.58;;;15.90;47.90;;;;;;4973507;28;20035;-90
2021/04/27 11:00:39;;;;;;;2.08;1.60;;;16.00;47.70;;;;;;4946277;28;20046;-95
2021/04/27 11:03:20;;;;;;;1.50;1.38;;;16.10;47.80;;;;;;4971715;28;20444;-90
2021/04/27 11:06:07;;;;;;;1.73;1.48;;;16.20;48.00;;;;;;4970317;28;20051;-92
2021/04/27 11:08:52;;;;;;;1.92;1.33;;;16.30;48.20;;;;;;4948108;28;20557;-95
2021/04/27 11:11:19;;;;;;;;;;;16.50;48.10;;;;;;4951602;29;20079;-91
2021/04/27 11:13:45;;;;;;;1.42;1.33;;;16.50;47.90;;;;;;4967066;28;19907;-89
2021/04/27 11:16:31;;;;;;;2.03;1.42;;;16.60;47.70;;;;;;4956532;28;20031;-89
2021/04/27 11:19:10;;;;;;;1.83;1.42;;;16.70;48.00;;;;;;4944758;28;20045;-83
2021/04/27 11:21:36;;;;;;;1.40;1.30;;;16.80;47.80;;;;;;4949331;29;20061;-88
2021/04/27 11:24:07;;;;;;;1.65;1.35;;;16.90;47.90;;;;;;4937981;28;20034;-88
2021/04/27 11:26:33;;;;;;;1.40;1.30;;;17.00;47.90;;;;;;4940550;29;20071;-87
2021/04/27 11:29:01;;;;;;;1.50;1.30;;;17.10;47.90;;;;;;4935075;28;20027;-88
2021/04/27 11:31:27;;;;;;;2.17;1.48;;;17.20;47.90;;;;;;4936957;28;20042;-87
2021/04/27 11:34:11;;;;;;;1.33;1.23;;;17.30;47.80;;;;;;4978523;28;20066;-87
2021/04/27 11:36:41;;;;;;;1.50;1.27;;;17.40;47.90;;;;;;4926257;29;20073;-86
2021/04/27 11:39:12;;;;;;;2.42;1.75;;;17.40;47.80;;;;;;4964262;28;20109;-86
2021/04/27 11:41:55;;;;;;;1.63;1.23;;;17.50;47.80;;;;;;4934065;28;20113;-87
2021/04/27 11:44:23;;;;;;;1.80;1.40;;;17.60;47.80;;;;;;4943868;28;20098;-86
2021/04/27 11:47:02;;;;;;;1.60;1.50;;;17.70;47.60;;;;;;4965681;28;20031;-85
2021/04/27 11:49:52;;;;;;;1.73;1.52;;;17.70;47.50;;;;;;4928479;28;20105;-86
2021/04/27 11:52:37;;;;;;;2.63;1.55;;;17.80;47.60;;;;;;4930445;29;20086;-85
2021/04/27 11:55:11;;;;;;;1.65;1.40;;;17.90;47.60;;;;;;4936974;29;20114;-87
2021/04/27 11:57:43;;;;;;;;;;;18.00;47.50;;;;;;4934914;29;20434;-88
2021/04/27 12:00:11;;;;;;;2.38;1.27;;;18.00;47.40;;;;;;4944094;28;19914;-89
2021/04/27 12:02:36;;;;;;;1.65;1.38;;;18.10;47.40;;;;;;4957125;28;20027;-85
2021/04/27 12:05:03;;;;;;;1.50;1.40;;;18.20;47.60;;;;;;4936188;29;20050;-88
2021/04/27 12:07:30;;;;;;;2.45;1.80;;;18.20;47.60;;;;;;4927925;29;20380;-89
2021/04/27 12:09:59;;;;;;;3.05;1.42;;;18.20;47.60;;;;;;4961051;28;20024;-87
2021/04/27 12:12:26;;;;;;;1.70;1.48;;;18.30;47.60;;;;;;4959596;28;20073;-87
2021/04/27 12:14:54;;;;;;;2.20;1.65;;;18.30;47.60;;;;;;4990598;28;20596;-90
2021/04/27 12:17:30;;;;;;;1.77;1.60;;;18.40;47.60;;;;;;4926664;29;20387;-93
2021/04/27 12:20:16;;;;;;;2.13;1.67;;;18.50;47.60;;;;;;4948059;28;20032;-89
2021/04/27 12:23:04;;;;;;;1.70;1.30;;;18.50;47.50;;;;;;4954902;29;20486;-90
2021/04/27 12:25:30;;;;;;;2.90;1.58;;;18.60;47.50;;;;;;4954683;28;20042;-90
2021/04/27 12:28:06;;;;;;;2.42;1.70;;;18.70;47.40;;;;;;4949250;28;20027;-90
2021/04/27 12:30:35;;;;;;;2.55;1.75;;;18.70;47.30;;;;;;4954918;28;20035;-93
2021/04/27 12:33:04;;;;;;;1.83;1.35;;;18.70;47.30;;;;;;4935165;29;20071;-89
2021/04/27 12:35:34;;;;;;;1.65;1.45;;;18.80;47.30;;;;;;4894475;29;20036;-93
2021/04/27 12:38:02;;;;;;;1.48;1.27;;;18.80;47.20;;;;;;4934703;29;20051;-92
2021/04/27 12:40:50;;;;;;;2.58;1.60;;;18.90;47.20;;;;;;4917938;29;20107;-90
2021/04/27 12:43:15;;;;;;;2.00;1.80;;;18.90;47.30;;;;;;4891029;29;20029;-89
2021/04/27 12:45:48;;;;;;;2.50;1.60;;;19.00;47.20;;;;;;4917604;29;20507;-91
2021/04/27 12:48:16;;;;;;;2.20;1.40;;;19.10;47.20;;;;;;4927876;29;20043;-92
2021/04/27 12:50:49;;;;;;;2.25;1.60;;;19.10;47.10;;;;;;4926601;29;20509;-92
2021/04/27 12:53:16;;;;;;;1.98;1.40;;;19.20;47.10;;;;;;4916654;29;20141;-92
2021/04/27 12:55:53;;;;;;;1.63;1.50;;;19.20;47.10;;;;;;4932980;29;20071;-92
2021/04/27 12:58:23;;;;;;;1.40;1.23;;;19.20;47.10;;;;;;4905780;29;20024;-92
2021/04/27 13:01:01;;;;;;;1.83;1.60;;;19.30;47.00;;;;;;4919524;29;20434;-93
2021/04/27 13:03:32;;;;;;;1.55;1.35;;;19.30;46.90;;;;;;4905407;29;20043;-93
2021/04/27 13:05:58;;;;;;;2.20;1.65;;;19.40;47.50;;;;;;4917435;29;20366;-93
2021/04/27 13:08:28;;;;;;;1.90;1.45;;;19.40;46.70;;;;;;4917950;29;20027;-91